Time;durP1;ratioP1;P1;durP2;ratioP2;P2;SDS_P1;SDS_P2;PMS_P1;PMS_P2;Temp;Humidity;BMP_temperature;BMP_pressure;BME280_temperature;BME280_humidity;BME280_pressure;Samples;Min_cycle;Max_cycle;Signal;HPM_P1;HPM_P2
2021/10/15 00:01:33;;;;;;;7.80;4.30;;;14.10;79.90;;;;;;5074498;28;20021;-84
2021/10/15 00:03:58;;;;;;;6.13;4.43;;;14.10;80.00;;;;;;5058013;28;20090;-84
2021/10/15 00:06:24;;;;;;;8.52;4.55;;;14.10;80.00;;;;;;5059181;28;20040;-84
2021/10/15 00:08:50;;;;;;;6.22;4.57;;;14.10;79.90;;;;;;5073713;28;20025;-83
2021/10/15 00:11:15;;;;;;;7.80;4.35;;;14.10;79.90;;;;;;5073106;28;20029;-83
2021/10/15 00:13:41;;;;;;;5.25;3.92;;;14.10;79.90;;;;;;5075525;28;20410;-82
2021/10/15 00:16:07;;;;;;;6.10;4.50;;;14.10;80.10;;;;;;5073094;28;20421;-83
2021/10/15 00:18:33;;;;;;;5.97;4.25;;;14.10;80.00;;;;;;5044653;28;20443;-83
2021/10/15 00:20:59;;;;;;;5.55;4.00;;;14.00;80.00;;;;;;5075323;28;20021;-82
2021/10/15 00:23:24;;;;;;;7.15;4.55;;;14.00;80.00;;;;;;5094225;28;20082;-83
2021/10/15 00:25:50;;;;;;;8.45;4.38;;;14.00;80.10;;;;;;5111792;28;20029;-83
2021/10/15 00:28:16;;;;;;;8.15;4.53;;;14.00;80.10;;;;;;5076145;28;20036;-83
2021/10/15 00:30:41;;;;;;;6.30;4.53;;;14.00;80.10;;;;;;5110891;28;20040;-84
2021/10/15 00:33:07;;;;;;;6.70;4.72;;;14.00;80.10;;;;;;5093589;28;20021;-82
2021/10/15 00:35:33;;;;;;;10.23;5.20;;;14.00;80.10;;;;;;5083240;28;20494;-83
2021/10/15 00:37:58;;;;;;;8.05;4.45;;;14.00;80.20;;;;;;5093104;28;20024;-83
2021/10/15 00:40:24;;;;;;;8.57;4.05;;;13.90;80.20;;;;;;5109880;28;20029;-83
2021/10/15 00:42:50;;;;;;;7.65;4.25;;;14.00;80.30;;;;;;5110450;28;20055;-82
2021/10/15 00:45:15;;;;;;;5.60;4.30;;;14.00;80.30;;;;;;5109388;28;20035;-82
2021/10/15 00:47:41;;;;;;;7.07;4.43;;;14.00;80.30;;;;;;5109622;28;20028;-83
2021/10/15 00:50:07;;;;;;;5.93;4.45;;;14.00;80.40;;;;;;5093457;28;20016;-83
2021/10/15 00:52:33;;;;;;;5.88;4.65;;;14.00;80.40;;;;;;5075828;28;20166;-83
2021/10/15 00:54:59;;;;;;;7.40;4.75;;;13.90;80.30;;;;;;5094884;28;20097;-83
2021/10/15 00:57:25;;;;;;;6.65;4.15;;;13.90;81.00;;;;;;5108372;28;20025;-83
2021/10/15 00:59:51;;;;;;;6.85;4.60;;;14.00;80.50;;;;;;5091255;28;20158;-83
2021/10/15 01:02:17;;;;;;;6.18;4.32;;;13.90;80.50;;;;;;5091395;28;20028;-83
2021/10/15 01:04:43;;;;;;;5.38;4.00;;;13.90;80.50;;;;;;5108021;28;20028;-83
2021/10/15 01:07:09;;;;;;;7.25;4.72;;;13.90;80.50;;;;;;5107893;28;20039;-83
2021/10/15 01:09:35;;;;;;;8.30;5.07;;;13.90;80.50;;;;;;5108002;28;20029;-83
2021/10/15 01:12:02;;;;;;;7.28;4.78;;;13.90;80.50;;;;;;5074888;28;20092;-82
2021/10/15 01:14:29;;;;;;;7.05;4.30;;;13.90;80.60;;;;;;5108829;28;20054;-83
2021/10/15 01:16:55;;;;;;;5.35;4.22;;;13.90;80.70;;;;;;5107900;28;20051;-82
2021/10/15 01:19:21;;;;;;;5.25;4.30;;;13.90;80.70;;;;;;5075522;28;20029;-83
2021/10/15 01:21:47;;;;;;;5.60;4.68;;;13.90;80.70;;;;;;5090960;28;20125;-83
2021/10/15 01:24:14;;;;;;;5.95;4.28;;;13.90;80.70;;;;;;5107832;28;20123;-82
2021/10/15 01:26:41;;;;;;;7.35;4.78;;;13.90;80.70;;;;;;5074514;28;20463;-83
2021/10/15 01:29:06;;;;;;;6.15;4.90;;;13.90;80.70;;;;;;5106651;28;20475;-82
2021/10/15 01:31:32;;;;;;;7.18;4.47;;;13.90;80.70;;;;;;5074202;28;20028;-83
2021/10/15 01:33:59;;;;;;;5.10;4.43;;;13.90;80.80;;;;;;5107762;28;20488;-82
2021/10/15 01:36:25;;;;;;;5.88;4.55;;;13.90;80.90;;;;;;5107396;28;20028;-83
2021/10/15 01:38:51;;;;;;;6.68;4.68;;;13.90;80.90;;;;;;5073811;28;20492;-83
2021/10/15 01:41:17;;;;;;;7.13;4.18;;;13.90;80.90;;;;;;5093062;28;20103;-82
2021/10/15 01:43:43;;;;;;;10.57;5.75;;;13.90;80.90;;;;;;5107032;28;20033;-82
2021/10/15 01:46:08;;;;;;;8.98;5.32;;;13.90;80.90;;;;;;5106787;28;20060;-82
2021/10/15 01:48:34;;;;;;;6.93;5.22;;;13.90;80.90;;;;;;5106891;28;20549;-83
2021/10/15 01:51:00;;;;;;;6.78;4.82;;;13.90;81.00;;;;;;5107074;28;20020;-82
2021/10/15 01:53:25;;;;;;;5.65;4.90;;;13.90;81.20;;;;;;5090409;28;20024;-83
2021/10/15 01:55:52;;;;;;;6.65;4.63;;;13.90;81.10;;;;;;5106694;28;20037;-83
2021/10/15 01:58:17;;;;;;;9.57;5.38;;;13.90;81.20;;;;;;5089445;28;20480;-83
2021/10/15 02:00:44;;;;;;;5.47;4.60;;;13.90;81.30;;;;;;5072826;28;20078;-83
2021/10/15 02:03:09;;;;;;;8.32;5.28;;;13.80;81.20;;;;;;5089737;28;20040;-83
2021/10/15 02:05:35;;;;;;;6.45;4.85;;;13.80;81.20;;;;;;5106717;28;20020;-82
2021/10/15 02:11:22;;;;;;;7.50;5.55;;;13.80;81.30;;;;;;5074005;28;20023;-82
2021/10/15 02:13:48;;;;;;;6.85;5.15;;;13.80;81.40;;;;;;5089483;28;20032;-82
2021/10/15 02:16:14;;;;;;;6.78;5.15;;;13.80;81.50;;;;;;5089252;28;20035;-83
2021/10/15 02:18:39;;;;;;;8.63;5.60;;;13.80;81.50;;;;;;5073849;28;20158;-82
2021/10/15 02:21:05;;;;;;;8.73;5.40;;;13.80;81.60;;;;;;5106214;28;20083;-82
2021/10/15 02:23:31;;;;;;;6.07;5.25;;;13.80;81.60;;;;;;5106532;28;20039;-83
2021/10/15 02:25:56;;;;;;;8.27;5.85;;;13.80;81.70;;;;;;5089520;28;20392;-82
2021/10/15 02:28:22;;;;;;;7.97;5.85;;;13.80;81.70;;;;;;5106509;28;20024;-82
2021/10/15 02:30:48;;;;;;;7.82;5.65;;;13.80;81.70;;;;;;5088722;28;20028;-82
2021/10/15 02:33:13;;;;;;;9.13;5.30;;;13.70;81.80;;;;;;5073454;28;20477;-82
2021/10/15 02:35:39;;;;;;;9.25;5.50;;;13.70;81.80;;;;;;5106283;28;20485;-83
2021/10/15 02:38:05;;;;;;;8.15;5.35;;;13.80;81.90;;;;;;5089812;28;20040;-82
2021/10/15 02:40:30;;;;;;;7.93;5.40;;;13.70;81.80;;;;;;5108134;28;20025;-82
2021/10/15 02:42:57;;;;;;;9.20;5.55;;;13.70;81.90;;;;;;5077421;28;20111;-82
2021/10/15 02:45:23;;;;;;;8.25;5.25;;;13.70;81.90;;;;;;5092515;28;20024;-82
2021/10/15 02:47:49;;;;;;;8.70;5.25;;;13.70;82.00;;;;;;5109643;28;20028;-83
2021/10/15 02:50:14;;;;;;;7.80;5.32;;;13.70;82.00;;;;;;5110272;28;20043;-82
2021/10/15 02:52:40;;;;;;;6.07;4.90;;;13.70;82.10;;;;;;5078042;28;20036;-83
2021/10/15 02:55:07;;;;;;;7.28;5.65;;;13.70;82.10;;;;;;5109694;28;20031;-82
2021/10/15 02:57:32;;;;;;;8.02;5.15;;;13.70;82.10;;;;;;5092428;28;20448;-82
2021/10/15 02:59:58;;;;;;;7.50;5.30;;;13.70;82.10;;;;;;5109408;28;20048;-83
2021/10/15 03:02:23;;;;;;;6.53;5.18;;;13.70;82.20;;;;;;5109842;28;20032;-82
2021/10/15 03:04:49;;;;;;;6.82;5.22;;;13.70;82.20;;;;;;5077683;28;20028;-82
2021/10/15 03:07:15;;;;;;;7.07;5.78;;;13.70;82.20;;;;;;5109362;28;20028;-83
2021/10/15 03:09:40;;;;;;;6.82;5.40;;;13.70;82.30;;;;;;5092173;28;20027;-82
2021/10/15 03:12:06;;;;;;;7.13;5.38;;;13.70;82.30;;;;;;5075403;28;20078;-82
2021/10/15 03:14:33;;;;;;;8.15;5.55;;;13.60;82.30;;;;;;5095698;28;20032;-82
2021/10/15 03:16:58;;;;;;;9.93;6.25;;;13.70;82.40;;;;;;5077780;28;20396;-83
2021/10/15 03:19:24;;;;;;;8.07;5.60;;;13.60;82.50;;;;;;5109473;28;20024;-83
2021/10/15 03:25:12;;;;;;;9.07;6.00;;;13.60;82.60;;;;;;5076109;28;20059;-82
2021/10/15 03:27:38;;;;;;;7.90;5.68;;;13.60;82.60;;;;;;5092348;28;20039;-83
2021/10/15 03:30:05;;;;;;;6.75;5.50;;;13.50;82.60;;;;;;5109157;28;20492;-82
2021/10/15 03:32:30;;;;;;;7.60;6.25;;;13.50;82.70;;;;;;5109599;28;20036;-82
2021/10/15 03:34:56;;;;;;;6.82;5.30;;;13.60;82.80;;;;;;5109764;28;20369;-82
2021/10/15 03:37:23;;;;;;;7.88;5.35;;;13.60;82.80;;;;;;5076393;28;20020;-83
2021/10/15 03:39:52;;;;;;;9.07;5.05;;;13.60;82.80;;;;;;5110190;28;20028;-82
2021/10/15 03:42:18;;;;;;;8.52;5.63;;;13.60;82.80;;;;;;5093210;28;20493;-82
2021/10/15 03:44:44;;;;;;;10.15;6.15;;;13.60;82.80;;;;;;5077877;28;20036;-82
2021/10/15 03:47:10;;;;;;;8.52;6.20;;;13.60;82.80;;;;;;5092256;28;20392;-82
2021/10/15 03:49:35;;;;;;;7.75;5.65;;;13.60;82.90;;;;;;5092475;28;20070;-82
2021/10/15 03:52:01;;;;;;;8.15;6.30;;;13.50;82.80;;;;;;5075802;28;20028;-83
2021/10/15 03:54:27;;;;;;;8.45;5.93;;;13.60;82.90;;;;;;5076578;28;20035;-83
2021/10/15 03:56:52;;;;;;;10.45;5.40;;;13.60;82.90;;;;;;5109170;28;20068;-83
2021/10/15 03:59:18;;;;;;;9.27;5.70;;;13.60;82.90;;;;;;5091907;28;20052;-83
2021/10/15 04:01:44;;;;;;;9.52;6.07;;;13.60;83.00;;;;;;5109257;28;20029;-83
2021/10/15 04:04:10;;;;;;;7.95;6.00;;;13.60;83.00;;;;;;5108790;28;20106;-83
2021/10/15 04:06:36;;;;;;;9.45;6.15;;;13.60;83.00;;;;;;5108818;28;20020;-83
2021/10/15 04:09:02;;;;;;;8.60;5.97;;;13.60;83.00;;;;;;5075886;28;20032;-82
2021/10/15 04:11:28;;;;;;;7.90;5.95;;;13.60;83.00;;;;;;5108402;28;20025;-83
2021/10/15 04:13:53;;;;;;;8.63;6.05;;;13.60;83.00;;;;;;5108727;28;20035;-83
2021/10/15 04:16:19;;;;;;;7.57;5.95;;;13.50;83.10;;;;;;5108555;28;20028;-83
2021/10/15 04:18:45;;;;;;;8.75;6.00;;;13.50;83.20;;;;;;5108852;28;20476;-83
2021/10/15 04:21:10;;;;;;;8.70;6.20;;;13.50;83.20;;;;;;5108582;28;20036;-83
2021/10/15 04:23:36;;;;;;;7.35;5.28;;;13.50;83.20;;;;;;5108381;28;20423;-83
2021/10/15 04:26:02;;;;;;;9.57;6.10;;;13.50;83.20;;;;;;5108094;28;20051;-83
2021/10/15 04:28:27;;;;;;;8.32;5.93;;;13.50;83.30;;;;;;5091251;28;20021;-83
2021/10/15 04:30:53;;;;;;;7.50;5.43;;;13.50;83.30;;;;;;5075596;28;20084;-83
2021/10/15 04:33:18;;;;;;;6.25;5.57;;;13.50;83.40;;;;;;5107969;28;20031;-83
2021/10/15 04:35:44;;;;;;;7.10;5.95;;;13.50;83.40;;;;;;5108142;28;20444;-83
2021/10/15 04:38:10;;;;;;;8.95;5.95;;;13.50;83.40;;;;;;5075601;28;20036;-83
2021/10/15 04:40:36;;;;;;;10.00;6.38;;;13.50;83.50;;;;;;5108291;28;20411;-83
2021/10/15 04:43:01;;;;;;;8.35;6.30;;;13.50;83.50;;;;;;5107935;28;20480;-83
2021/10/15 04:45:27;;;;;;;7.75;6.13;;;13.50;83.70;;;;;;5107595;28;20031;-83
2021/10/15 04:47:53;;;;;;;11.55;6.80;;;13.50;83.70;;;;;;5108255;28;20091;-83
2021/10/15 04:50:18;;;;;;;8.20;6.18;;;13.50;83.80;;;;;;5091415;28;20115;-83
2021/10/15 04:52:44;;;;;;;10.18;6.70;;;13.50;83.80;;;;;;5091349;28;20023;-84
2021/10/15 04:55:11;;;;;;;10.18;6.20;;;13.50;83.80;;;;;;5108250;28;20115;-83
2021/10/15 04:57:36;;;;;;;9.82;6.72;;;13.50;83.90;;;;;;5107918;28;20395;-84
2021/10/15 05:00:04;;;;;;;8.55;5.93;;;13.50;83.90;;;;;;5108016;28;20020;-84
2021/10/15 05:02:30;;;;;;;13.48;7.45;;;13.50;84.00;;;;;;5090500;28;20067;-83
2021/10/15 05:04:56;;;;;;;10.27;7.47;;;13.50;84.00;;;;;;5090827;28;20515;-83
2021/10/15 05:07:24;;;;;;;11.07;7.25;;;13.50;84.10;;;;;;5107666;28;20373;-84
2021/10/15 05:09:50;;;;;;;8.48;6.25;;;13.50;84.10;;;;;;5075505;28;20362;-83
2021/10/15 05:12:16;;;;;;;8.65;6.70;;;13.50;84.10;;;;;;5107740;28;20074;-84
2021/10/15 05:14:43;;;;;;;9.43;6.22;;;13.60;84.10;;;;;;5075922;28;20056;-83
2021/10/15 05:20:31;;;;;;;11.63;6.82;;;13.60;84.80;;;;;;5075838;28;20027;-83
2021/10/15 05:22:56;;;;;;;9.35;6.43;;;13.60;84.30;;;;;;5075560;28;20028;-84
2021/10/15 05:25:22;;;;;;;8.50;6.72;;;13.60;84.30;;;;;;5073640;28;20036;-84
2021/10/15 05:31:10;;;;;;;9.73;6.93;;;13.50;84.50;;;;;;5074680;28;20028;-84
2021/10/15 05:33:35;;;;;;;8.27;6.82;;;13.60;84.70;;;;;;5090969;28;20033;-83
2021/10/15 05:36:01;;;;;;;12.75;6.70;;;13.50;84.70;;;;;;5108134;28;20507;-84
2021/10/15 05:38:27;;;;;;;13.90;7.70;;;13.50;84.90;;;;;;5074036;28;20559;-84
2021/10/15 05:40:52;;;;;;;10.10;7.20;;;13.50;85.00;;;;;;5090280;28;20239;-84
2021/10/15 05:43:19;;;;;;;10.82;7.68;;;13.50;85.00;;;;;;5075331;28;20038;-82
2021/10/15 05:45:45;;;;;;;9.73;6.95;;;13.50;85.10;;;;;;5074998;28;20380;-83
2021/10/15 05:48:11;;;;;;;12.32;7.20;;;13.50;85.10;;;;;;5073898;28;20021;-83
2021/10/15 05:50:36;;;;;;;9.02;7.38;;;13.50;85.20;;;;;;5107598;28;20553;-83
2021/10/15 05:53:07;;;;;;;10.13;6.72;;;13.50;85.30;;;;;;5107844;28;20025;-82
2021/10/15 05:55:42;;;;;;;10.70;6.60;;;13.50;85.30;;;;;;5074158;28;20037;-82
2021/10/15 06:00:52;;;;;;;11.30;7.38;;;13.50;85.40;;;;;;5074781;28;20051;-82
2021/10/15 06:03:22;;;;;;;12.85;8.27;;;13.50;85.40;;;;;;5090500;28;20396;-82
2021/10/15 06:16:32;;;;;;;9.30;7.65;;;13.50;85.70;;;;;;5078785;28;20089;-82
2021/10/15 06:19:04;;;;;;;10.25;8.02;;;13.50;85.70;;;;;;5111367;28;20025;-83
2021/10/15 06:21:31;;;;;;;10.38;7.45;;;13.50;85.90;;;;;;5112017;28;20024;-82
2021/10/15 06:23:57;;;;;;;10.20;8.00;;;13.50;85.80;;;;;;5094480;28;20044;-83
2021/10/15 06:26:22;;;;;;;10.23;7.20;;;13.50;86.00;;;;;;5110920;28;20118;-82
2021/10/15 06:28:48;;;;;;;12.88;7.57;;;13.50;86.00;;;;;;5094041;28;20028;-82
2021/10/15 06:31:13;;;;;;;10.27;7.53;;;13.50;85.90;;;;;;5078374;28;20056;-83
2021/10/15 06:33:39;;;;;;;9.45;7.07;;;13.50;85.90;;;;;;5110606;28;20032;-83
2021/10/15 06:36:15;;;;;;;;;;;;;;;;;;;;;
2021/10/15 06:42:03;;;;;;;11.88;7.32;;;13.60;85.90;;;;;;5079958;28;20043;-83
2021/10/15 06:44:29;;;;;;;10.23;7.57;;;13.60;85.90;;;;;;5112528;28;20028;-84
2021/10/15 06:46:55;;;;;;;10.77;8.00;;;13.60;86.00;;;;;;5095367;28;20535;-82
2021/10/15 06:49:21;;;;;;;12.50;8.25;;;13.60;86.30;;;;;;5094788;28;20023;-83
2021/10/15 06:55:08;;;;;;;10.70;7.80;;;13.50;87.10;;;;;;5077008;28;20112;-82
2021/10/15 06:57:34;;;;;;;12.07;8.13;;;13.50;87.10;;;;;;5076296;28;20099;-82
2021/10/15 06:59:59;;;;;;;12.45;8.68;;;13.50;87.40;;;;;;5092114;28;20055;-81
2021/10/15 07:02:25;;;;;;;12.27;8.20;;;13.50;87.70;;;;;;5091811;28;20025;-83
2021/10/15 07:04:50;;;;;;;16.50;7.03;;;13.40;88.00;;;;;;5091722;28;20073;-81
2021/10/15 07:07:16;;;;;;;6.13;4.45;;;13.30;88.40;;;;;;5082211;28;20491;-80
2021/10/15 07:09:41;;;;;;;5.22;3.63;;;13.10;88.40;;;;;;5092185;28;20085;-80
2021/10/15 07:12:07;;;;;;;3.50;3.17;;;13.00;89.10;;;;;;5076240;28;20025;-80
2021/10/15 07:14:33;;;;;;;4.57;3.10;;;12.90;89.30;;;;;;5076212;28;20028;-81
2021/10/15 07:16:58;;;;;;;3.63;2.28;;;12.80;89.60;;;;;;5092090;28;20024;-81
2021/10/15 07:19:24;;;;;;;4.13;2.15;;;12.80;89.70;;;;;;5092089;28;20047;-81
2021/10/15 07:21:49;;;;;;;1.70;1.38;;;12.70;89.70;;;;;;5075797;28;20028;-81
2021/10/15 07:24:15;;;;;;;1.02;1.00;;;12.70;89.80;;;;;;5075509;28;20120;-81
2021/10/15 07:26:41;;;;;;;1.20;0.80;;;12.70;89.90;;;;;;5090901;28;20047;-81
2021/10/15 07:29:07;;;;;;;0.85;0.57;;;12.60;89.90;;;;;;5075719;28;20563;-81
2021/10/15 07:31:33;;;;;;;0.60;0.43;;;12.60;90.00;;;;;;5091758;28;20074;-80
2021/10/15 07:33:58;;;;;;;1.38;0.30;;;12.50;90.10;;;;;;5091600;28;20024;-81
2021/10/15 07:36:24;;;;;;;2.70;0.30;;;12.40;90.10;;;;;;5091601;28;20025;-81
2021/10/15 07:38:50;;;;;;;1.85;0.35;;;12.30;90.10;;;;;;5076155;28;20024;-81
2021/10/15 07:41:17;;;;;;;1.80;0.40;;;12.20;90.10;;;;;;5091734;28;20020;-81
2021/10/15 07:43:43;;;;;;;0.88;0.35;;;12.10;90.10;;;;;;5091909;28;20021;-81
2021/10/15 07:46:09;;;;;;;0.80;0.30;;;12.10;90.20;;;;;;5092302;28;20036;-80
2021/10/15 07:48:34;;;;;;;2.53;0.40;;;12.10;90.20;;;;;;5092537;28;20032;-80
2021/10/15 07:51:01;;;;;;;2.13;0.50;;;12.10;90.30;;;;;;5092218;28;20477;-80
2021/10/15 07:53:27;;;;;;;1.13;0.50;;;12.00;90.20;;;;;;5090943;28;20032;-81
2021/10/15 07:55:53;;;;;;;0.65;0.35;;;12.00;90.30;;;;;;5092266;28;20017;-79
2021/10/15 07:58:19;;;;;;;2.80;0.60;;;11.90;90.30;;;;;;5093773;28;20042;-81
2021/10/15 08:00:44;;;;;;;1.42;0.40;;;12.00;90.30;;;;;;5076215;28;20012;-80
2021/10/15 08:03:10;;;;;;;1.48;0.50;;;12.00;90.30;;;;;;5075792;28;20100;-80
2021/10/15 08:05:35;;;;;;;3.17;2.05;;;12.00;90.30;;;;;;5075742;28;20098;-80
2021/10/15 08:08:01;;;;;;;2.05;0.60;;;12.00;90.30;;;;;;5091664;28;20052;-80
2021/10/15 08:10:27;;;;;;;2.55;0.60;;;12.00;90.30;;;;;;5075621;28;20032;-80
2021/10/15 08:12:52;;;;;;;1.58;0.63;;;12.00;90.30;;;;;;5091324;28;20024;-79
2021/10/15 08:15:18;;;;;;;1.23;0.50;;;12.00;90.30;;;;;;5091329;28;20033;-79
2021/10/15 08:17:45;;;;;;;1.70;0.47;;;12.10;90.30;;;;;;5090963;28;20549;-79
2021/10/15 08:20:13;;;;;;;1.50;0.40;;;12.10;90.30;;;;;;5090689;28;20506;-80
2021/10/15 08:22:39;;;;;;;1.77;0.43;;;12.20;90.30;;;;;;5075702;28;20511;-82
2021/10/15 08:25:06;;;;;;;4.30;0.73;;;12.20;90.30;;;;;;5091887;28;20044;-85
2021/10/15 08:27:33;;;;;;;3.53;0.50;;;12.20;90.20;;;;;;5092879;28;20091;-84
2021/10/15 08:29:59;;;;;;;2.70;0.60;;;12.30;90.30;;;;;;5092479;28;20094;-81
2021/10/15 08:32:26;;;;;;;2.10;0.47;;;12.30;90.20;;;;;;5091773;28;20020;-81
2021/10/15 08:34:52;;;;;;;1.08;0.50;;;12.40;90.20;;;;;;5093587;28;20020;-83
2021/10/15 08:37:17;;;;;;;2.97;0.40;;;12.40;90.20;;;;;;5090626;28;20122;-82
2021/10/15 08:39:43;;;;;;;2.03;0.55;;;12.50;90.20;;;;;;5090249;28;20024;-82
2021/10/15 08:42:09;;;;;;;1.75;0.40;;;12.50;90.20;;;;;;5090384;28;20035;-83
2021/10/15 08:44:41;;;;;;;2.55;0.80;;;12.60;90.20;;;;;;5090590;28;20111;-83
2021/10/15 08:47:07;;;;;;;1.40;0.38;;;12.60;90.20;;;;;;5075741;28;20070;-83
2021/10/15 08:49:33;;;;;;;1.30;0.90;;;12.60;90.10;;;;;;5091511;28;20020;-83
2021/10/15 08:51:58;;;;;;;2.40;0.70;;;12.60;90.20;;;;;;5091879;28;20031;-83
2021/10/15 08:54:24;;;;;;;1.60;0.80;;;12.60;90.20;;;;;;5093164;28;20017;-83
2021/10/15 08:56:50;;;;;;;2.20;0.57;;;12.70;90.20;;;;;;5093339;28;20017;-83
2021/10/15 08:59:20;;;;;;;3.10;0.88;;;12.70;90.10;;;;;;5093138;28;20021;-83
2021/10/15 09:01:48;;;;;;;1.17;0.60;;;12.80;90.10;;;;;;5077285;28;20019;-83
2021/10/15 09:04:19;;;;;;;3.60;0.70;;;12.80;90.10;;;;;;5092883;28;20073;-83
2021/10/15 09:06:47;;;;;;;2.53;0.68;;;12.90;90.10;;;;;;5091967;28;20435;-83
2021/10/15 09:09:13;;;;;;;2.75;0.82;;;12.90;90.00;;;;;;5092081;28;20033;-83
2021/10/15 09:11:47;;;;;;;2.15;0.70;;;13.00;90.00;;;;;;5093323;28;20032;-85
2021/10/15 09:14:22;;;;;;;2.35;0.80;;;13.00;90.00;;;;;;5076824;28;20033;-83
2021/10/15 09:17:08;;;;;;;1.63;0.65;;;13.00;89.70;;;;;;5092387;28;20021;-83
2021/10/15 09:19:43;;;;;;;3.97;1.13;;;13.00;89.70;;;;;;5092550;28;20492;-83
2021/10/15 09:22:20;;;;;;;2.72;0.73;;;13.00;89.60;;;;;;5108928;28;20024;-83
2021/10/15 09:24:45;;;;;;;4.18;0.98;;;13.00;89.60;;;;;;5091067;28;20047;-83
2021/10/15 09:27:18;;;;;;;1.55;0.82;;;12.90;89.50;;;;;;5108261;28;20044;-83
2021/10/15 09:29:47;;;;;;;3.35;0.95;;;12.90;89.70;;;;;;5076330;28;20020;-83
2021/10/15 09:32:13;;;;;;;2.80;0.80;;;12.90;89.80;;;;;;5091527;28;20021;-83
2021/10/15 09:34:39;;;;;;;4.85;1.00;;;12.90;89.80;;;;;;5076256;28;20033;-83
2021/10/15 09:37:21;;;;;;;1.88;0.88;;;13.00;89.80;;;;;;5092383;28;20116;-83
2021/10/15 09:39:47;;;;;;;3.95;1.10;;;12.90;89.70;;;;;;5076088;28;20031;-83
2021/10/15 09:42:28;;;;;;;4.85;0.95;;;12.90;89.70;;;;;;5092471;28;20522;-83
2021/10/15 09:45:00;;;;;;;3.65;1.00;;;12.90;89.80;;;;;;5093015;28;20120;-82
2021/10/15 09:47:28;;;;;;;3.78;1.20;;;12.90;89.80;;;;;;5094493;28;20029;-82
2021/10/15 09:50:04;;;;;;;2.85;0.80;;;13.00;89.70;;;;;;5094037;28;20016;-83
2021/10/15 09:52:38;;;;;;;3.42;1.20;;;13.00;89.70;;;;;;5111445;28;20055;-83
2021/10/15 09:55:13;;;;;;;4.57;1.38;;;13.10;89.80;;;;;;5093962;28;20031;-83
2021/10/15 09:57:39;;;;;;;3.55;1.17;;;13.20;89.70;;;;;;5094509;28;20078;-83
2021/10/15 10:00:11;;;;;;;3.30;1.15;;;13.30;89.60;;;;;;5096872;28;20029;-83
2021/10/15 10:02:38;;;;;;;5.72;1.30;;;13.40;89.30;;;;;;5080307;28;20047;-84
2021/10/15 10:05:13;;;;;;;5.05;0.93;;;13.60;89.10;;;;;;5096397;28;20016;-84
2021/10/15 10:07:40;;;;;;;6.72;1.42;;;13.70;88.60;;;;;;5096761;28;20028;-82
2021/10/15 10:10:08;;;;;;;3.38;1.38;;;13.70;88.10;;;;;;5082468;28;20103;-83
2021/10/15 10:12:36;;;;;;;4.88;1.10;;;13.80;88.10;;;;;;5082492;28;20024;-82
2021/10/15 10:18:31;;;;;;;3.15;0.93;;;14.00;87.60;;;;;;5083586;28;20066;-80
2021/10/15 10:21:05;;;;;;;3.90;0.85;;;14.20;87.40;;;;;;5074317;28;20426;-82
2021/10/15 10:23:36;;;;;;;2.85;0.95;;;14.20;87.10;;;;;;5073115;28;20079;-71
2021/10/15 10:26:06;;;;;;;3.40;1.00;;;14.30;87.00;;;;;;5072786;28;20016;-75
2021/10/15 10:28:32;;;;;;;2.35;0.82;;;14.40;86.70;;;;;;5105058;28;20484;-75
2021/10/15 10:31:03;;;;;;;3.92;1.20;;;14.30;86.40;;;;;;5072693;28;20532;-73
2021/10/15 10:33:30;;;;;;;2.95;0.90;;;14.30;86.30;;;;;;5072518;28;20024;-74
2021/10/15 10:36:11;;;;;;;3.72;1.08;;;14.30;86.20;;;;;;5072697;28;20033;-74
2021/10/15 10:38:38;;;;;;;5.22;1.45;;;14.30;86.00;;;;;;5072659;28;20033;-72
2021/10/15 10:41:06;;;;;;;3.97;0.90;;;14.30;86.00;;;;;;5072421;28;20024;-75
2021/10/15 10:43:42;;;;;;;2.33;0.90;;;14.40;86.00;;;;;;5072211;28;20025;-77
2021/10/15 10:46:16;;;;;;;5.20;1.13;;;14.40;85.80;;;;;;5073917;28;20029;-79
2021/10/15 10:48:50;;;;;;;4.55;1.00;;;14.40;85.40;;;;;;5074643;28;20029;-80
2021/10/15 10:51:23;;;;;;;5.45;1.08;;;14.30;85.10;;;;;;5082280;28;20047;-81
2021/10/15 10:54:04;;;;;;;3.80;0.90;;;14.30;85.20;;;;;;5113608;28;20028;-78
2021/10/15 10:56:41;;;;;;;4.40;0.90;;;14.30;84.90;;;;;;5081666;28;20036;-80
2021/10/15 10:59:16;;;;;;;3.80;0.90;;;14.40;84.30;;;;;;5076564;28;20124;-80
2021/10/15 11:01:46;;;;;;;3.75;0.90;;;14.50;83.80;;;;;;5109673;28;20040;-80
2021/10/15 11:04:32;;;;;;;4.68;1.05;;;14.60;83.20;;;;;;5094237;28;20117;-80
2021/10/15 11:07:02;;;;;;;4.25;1.00;;;14.60;83.10;;;;;;5078659;28;20131;-81
2021/10/15 11:09:32;;;;;;;4.88;1.00;;;14.40;83.00;;;;;;5111212;28;20401;-81
2021/10/15 11:11:57;;;;;;;3.83;0.80;;;14.30;83.00;;;;;;5110887;28;20029;-80
2021/10/15 11:14:46;;;;;;;6.18;1.00;;;14.10;83.20;;;;;;5077196;28;20103;-78
2021/10/15 11:17:12;;;;;;;4.05;1.08;;;14.00;83.30;;;;;;5077183;28;20105;-80
2021/10/15 11:19:38;;;;;;;3.30;0.80;;;14.00;83.50;;;;;;5076743;28;20024;-79
2021/10/15 11:22:04;;;;;;;2.22;0.88;;;14.00;83.60;;;;;;5092067;28;20028;-79
2021/10/15 11:24:29;;;;;;;3.58;0.88;;;14.00;83.30;;;;;;5108518;28;20454;-80
2021/10/15 11:26:55;;;;;;;3.33;1.05;;;14.10;83.00;;;;;;5075907;28;20404;-80
2021/10/15 11:29:22;;;;;;;3.30;1.10;;;14.20;82.20;;;;;;5091397;28;20025;-80
2021/10/15 11:31:58;;;;;;;3.72;0.82;;;14.30;82.10;;;;;;5108500;28;20034;-79
2021/10/15 11:34:24;;;;;;;3.00;0.93;;;14.50;79.50;;;;;;5075534;28;20489;-79
2021/10/15 11:37:04;;;;;;;6.88;0.88;;;14.50;79.80;;;;;;5091264;28;20024;-78
2021/10/15 11:39:30;;;;;;;3.03;0.73;;;14.60;79.40;;;;;;5076139;28;20036;-80
2021/10/15 11:41:56;;;;;;;4.35;1.10;;;14.60;79.50;;;;;;5080276;28;20040;-85
2021/10/15 11:44:35;;;;;;;4.47;0.95;;;14.50;77.30;;;;;;5098494;28;20028;-87
2021/10/15 11:47:02;;;;;;;6.80;1.10;;;14.30;77.50;;;;;;5092861;28;20021;-80
2021/10/15 11:49:38;;;;;;;3.75;1.00;;;14.10;77.50;;;;;;5094190;28;20028;-84
2021/10/15 11:52:07;;;;;;;4.32;0.85;;;13.90;78.00;;;;;;5095951;28;20029;-80
2021/10/15 11:54:33;;;;;;;8.40;1.30;;;13.70;77.80;;;;;;5114207;28;20039;-82
2021/10/15 11:57:00;;;;;;;4.22;0.77;;;13.70;78.10;;;;;;5112214;28;20095;-81
2021/10/15 11:59:25;;;;;;;1.92;0.63;;;13.70;78.10;;;;;;5096304;28;20032;-79
2021/10/15 12:01:51;;;;;;;7.57;1.63;;;13.80;78.20;;;;;;5110922;28;20518;-79
2021/10/15 12:04:17;;;;;;;4.60;1.00;;;13.90;77.70;;;;;;5113482;28;20558;-83
2021/10/15 12:06:46;;;;;;;5.28;1.02;;;14.00;77.40;;;;;;5122993;28;20020;-81
2021/10/15 12:09:11;;;;;;;5.13;0.80;;;14.10;76.60;;;;;;5122867;28;20120;-81
2021/10/15 12:11:40;;;;;;;4.80;0.80;;;14.20;76.20;;;;;;5085290;28;20098;-81
2021/10/15 12:14:07;;;;;;;4.70;0.90;;;14.40;76.40;;;;;;5075842;28;20025;-82
2021/10/15 12:16:44;;;;;;;5.35;1.02;;;14.50;75.80;;;;;;5111718;28;20029;-82
2021/10/15 12:19:26;;;;;;;7.75;1.65;;;14.70;73.50;;;;;;5111473;28;20036;-82
2021/10/15 12:21:55;;;;;;;4.78;1.15;;;14.90;72.60;;;;;;5110474;28;20500;-79
2021/10/15 12:24:41;;;;;;;3.65;1.10;;;14.90;71.80;;;;;;5111259;28;20063;-81
2021/10/15 12:27:24;;;;;;;4.03;1.55;;;14.90;70.70;;;;;;5112886;28;20024;-82
2021/10/15 12:29:51;;;;;;;6.35;1.60;;;14.90;71.00;;;;;;5096091;28;20034;-83
2021/10/15 12:32:32;;;;;;;5.47;1.40;;;14.80;70.30;;;;;;5078580;28;20039;-80
2021/10/15 12:35:17;;;;;;;4.03;1.25;;;14.60;71.60;;;;;;5095084;28;20024;-84
2021/10/15 12:37:56;;;;;;;4.25;1.30;;;14.50;71.90;;;;;;5093723;28;20475;-83
2021/10/15 12:40:22;;;;;;;4.72;1.25;;;14.40;72.40;;;;;;5077776;28;20035;-83
2021/10/15 12:43:15;;;;;;;6.03;1.42;;;14.20;72.60;;;;;;5112044;28;20033;-81
2021/10/15 12:45:55;;;;;;;6.65;1.33;;;14.10;73.00;;;;;;5094475;28;20032;-83
2021/10/15 12:48:30;;;;;;;6.55;1.50;;;14.00;73.00;;;;;;5111508;28;20028;-83
2021/10/15 12:50:56;;;;;;;5.55;1.40;;;13.90;73.40;;;;;;5075967;28;20036;-81
2021/10/15 12:53:23;;;;;;;6.80;1.35;;;13.90;73.30;;;;;;5108737;28;20040;-80
2021/10/15 12:55:59;;;;;;;7.40;1.75;;;13.90;73.20;;;;;;5074050;28;20486;-79
2021/10/15 12:58:27;;;;;;;10.88;1.67;;;13.90;73.10;;;;;;5107659;28;20020;-82
2021/10/15 13:00:55;;;;;;;7.43;1.70;;;14.00;72.70;;;;;;5075904;28;20024;-84
2021/10/15 13:03:22;;;;;;;7.18;1.73;;;14.20;72.70;;;;;;5109900;28;20024;-84
2021/10/15 13:05:49;;;;;;;7.43;1.48;;;14.30;72.50;;;;;;5107555;28;20021;-82
2021/10/15 13:08:16;;;;;;;7.57;1.80;;;14.40;72.00;;;;;;5110016;28;20025;-79
2021/10/15 13:10:43;;;;;;;6.57;1.33;;;14.50;70.60;;;;;;5083166;28;20025;-82
2021/10/15 13:13:08;;;;;;;7.75;1.70;;;14.50;70.90;;;;;;5109566;28;20029;-81
2021/10/15 13:15:34;;;;;;;5.55;1.20;;;14.60;70.40;;;;;;5110623;28;20032;-86
2021/10/15 13:18:00;;;;;;;6.78;1.70;;;14.60;70.00;;;;;;5117383;28;20028;-83
2021/10/15 13:20:26;;;;;;;7.00;1.55;;;14.60;69.70;;;;;;5103930;28;20090;-86
2021/10/15 13:22:54;;;;;;;7.90;1.70;;;14.60;69.90;;;;;;5115861;28;20021;-80
2021/10/15 13:25:20;;;;;;;9.55;1.50;;;14.70;70.40;;;;;;5075389;28;20072;-78
2021/10/15 13:27:45;;;;;;;7.72;1.70;;;14.80;70.40;;;;;;5089422;28;20025;-78